sensor_id;sensor_type;location;lat;lon;timestamp;P1;durP1;ratioP1;P2;durP2;ratioP2
20084;SDS011;10202;48.474;9.138;2022-09-09T00:04:40;2.70;;;1.13;;
20084;SDS011;10202;48.474;9.138;2022-09-09T00:07:11;1.58;;;0.95;;
20084;SDS011;10202;48.474;9.138;2022-09-09T00:15:16;4.32;;;1.10;;
20084;SDS011;10202;48.474;9.138;2022-09-09T00:17:51;3.20;;;1.15;;
20084;SDS011;10202;48.474;9.138;2022-09-09T00:20:26;2.20;;;1.00;;
20084;SDS011;10202;48.474;9.138;2022-09-09T00:28:18;4.05;;;1.02;;
20084;SDS011;10202;48.474;9.138;2022-09-09T00:30:45;4.75;;;1.20;;
20084;SDS011;10202;48.474;9.138;2022-09-09T00:33:15;2.40;;;1.00;;
20084;SDS011;10202;48.474;9.138;2022-09-09T00:35:58;4.72;;;1.00;;
20084;SDS011;10202;48.474;9.138;2022-09-09T00:38:28;5.82;;;1.35;;
20084;SDS011;10202;48.474;9.138;2022-09-09T00:41:00;3.85;;;1.02;;
20084;SDS011;10202;48.474;9.138;2022-09-09T00:43:56;3.10;;;1.10;;
20084;SDS011;10202;48.474;9.138;2022-09-09T00:46:42;2.38;;;0.90;;
20084;SDS011;10202;48.474;9.138;2022-09-09T00:52:16;2.45;;;0.90;;
20084;SDS011;10202;48.474;9.138;2022-09-09T00:55:02;4.50;;;1.15;;
20084;SDS011;10202;48.474;9.138;2022-09-09T00:57:35;9.32;;;1.00;;
20084;SDS011;10202;48.474;9.138;2022-09-09T01:00:15;4.97;;;0.93;;
20084;SDS011;10202;48.474;9.138;2022-09-09T01:11:24;4.43;;;0.90;;
20084;SDS011;10202;48.474;9.138;2022-09-09T01:13:58;3.05;;;0.90;;
20084;SDS011;10202;48.474;9.138;2022-09-09T01:16:31;2.88;;;0.80;;
20084;SDS011;10202;48.474;9.138;2022-09-09T01:18:57;5.35;;;1.10;;
20084;SDS011;10202;48.474;9.138;2022-09-09T01:24:31;5.35;;;1.08;;
20084;SDS011;10202;48.474;9.138;2022-09-09T01:27:15;2.35;;;0.90;;
20084;SDS011;10202;48.474;9.138;2022-09-09T01:29:43;3.40;;;0.93;;
20084;SDS011;10202;48.474;9.138;2022-09-09T05:14:05;4.10;;;1.33;;
20084;SDS011;10202;48.474;9.138;2022-09-09T05:16:31;6.82;;;1.27;;
20084;SDS011;10202;48.474;9.138;2022-09-09T05:18:56;1.95;;;1.05;;
20084;SDS011;10202;48.474;9.138;2022-09-09T05:21:23;3.40;;;0.88;;
20084;SDS011;10202;48.474;9.138;2022-09-09T05:23:51;4.32;;;0.98;;
20084;SDS011;10202;48.474;9.138;2022-09-09T05:26:18;1.83;;;1.05;;
20084;SDS011;10202;48.474;9.138;2022-09-09T05:28:47;2.88;;;1.00;;
20084;SDS011;10202;48.474;9.138;2022-09-09T05:31:14;5.55;;;1.27;;
20084;SDS011;10202;48.474;9.138;2022-09-09T05:33:43;1.48;;;0.98;;
20084;SDS011;10202;48.474;9.138;2022-09-09T05:36:13;4.43;;;1.20;;
20084;SDS011;10202;48.474;9.138;2022-09-09T05:38:41;2.55;;;1.30;;
20084;SDS011;10202;48.474;9.138;2022-09-09T05:41:07;2.67;;;1.30;;
20084;SDS011;10202;48.474;9.138;2022-09-09T05:43:33;4.68;;;1.20;;
20084;SDS011;10202;48.474;9.138;2022-09-09T05:46:05;2.80;;;1.00;;
20084;SDS011;10202;48.474;9.138;2022-09-09T05:48:32;5.05;;;1.20;;
20084;SDS011;10202;48.474;9.138;2022-09-09T05:51:00;8.50;;;1.70;;
20084;SDS011;10202;48.474;9.138;2022-09-09T05:53:27;3.63;;;1.20;;
20084;SDS011;10202;48.474;9.138;2022-09-09T05:56:05;4.05;;;1.30;;
20084;SDS011;10202;48.474;9.138;2022-09-09T05:58:39;2.17;;;1.20;;
20084;SDS011;10202;48.474;9.138;2022-09-09T06:01:08;2.92;;;1.40;;
20084;SDS011;10202;48.474;9.138;2022-09-09T06:03:36;2.90;;;1.10;;
20084;SDS011;10202;48.474;9.138;2022-09-09T06:06:04;2.35;;;1.20;;
20084;SDS011;10202;48.474;9.138;2022-09-09T06:08:31;2.55;;;0.90;;
20084;SDS011;10202;48.474;9.138;2022-09-09T06:11:06;1.90;;;1.15;;
20084;SDS011;10202;48.474;9.138;2022-09-09T06:13:33;3.58;;;1.15;;
20084;SDS011;10202;48.474;9.138;2022-09-09T06:15:59;3.20;;;1.15;;
20084;SDS011;10202;48.474;9.138;2022-09-09T06:18:25;2.70;;;1.10;;
20084;SDS011;10202;48.474;9.138;2022-09-09T06:20:56;2.25;;;0.98;;
20084;SDS011;10202;48.474;9.138;2022-09-09T06:23:23;1.77;;;0.98;;
20084;SDS011;10202;48.474;9.138;2022-09-09T06:25:49;1.80;;;1.08;;
20084;SDS011;10202;48.474;9.138;2022-09-09T06:28:16;4.90;;;1.17;;
20084;SDS011;10202;48.474;9.138;2022-09-09T06:30:42;4.50;;;1.35;;
20084;SDS011;10202;48.474;9.138;2022-09-09T06:33:08;3.90;;;1.30;;
20084;SDS011;10202;48.474;9.138;2022-09-09T06:35:34;5.07;;;1.50;;
20084;SDS011;10202;48.474;9.138;2022-09-09T06:38:00;3.05;;;1.20;;
20084;SDS011;10202;48.474;9.138;2022-09-09T06:40:25;2.63;;;1.27;;
20084;SDS011;10202;48.474;9.138;2022-09-09T06:42:52;4.07;;;1.63;;
20084;SDS011;10202;48.474;9.138;2022-09-09T06:45:33;3.35;;;1.42;;
20084;SDS011;10202;48.474;9.138;2022-09-09T06:48:02;2.88;;;1.50;;
20084;SDS011;10202;48.474;9.138;2022-09-09T06:50:28;3.17;;;1.25;;
20084;SDS011;10202;48.474;9.138;2022-09-09T06:52:53;5.13;;;1.45;;
20084;SDS011;10202;48.474;9.138;2022-09-09T06:55:19;3.50;;;1.30;;
20084;SDS011;10202;48.474;9.138;2022-09-09T06:57:46;4.82;;;1.40;;
20084;SDS011;10202;48.474;9.138;2022-09-09T07:00:16;3.92;;;1.40;;
20084;SDS011;10202;48.474;9.138;2022-09-09T07:02:42;3.22;;;1.30;;
20084;SDS011;10202;48.474;9.138;2022-09-09T07:05:08;3.38;;;1.55;;
20084;SDS011;10202;48.474;9.138;2022-09-09T07:07:35;5.07;;;1.38;;
20084;SDS011;10202;48.474;9.138;2022-09-09T07:10:02;3.70;;;1.55;;
20084;SDS011;10202;48.474;9.138;2022-09-09T07:12:29;2.22;;;1.30;;
20084;SDS011;10202;48.474;9.138;2022-09-09T07:14:58;2.70;;;1.42;;
20084;SDS011;10202;48.474;9.138;2022-09-09T07:17:23;3.50;;;1.20;;
20084;SDS011;10202;48.474;9.138;2022-09-09T07:19:49;2.72;;;1.30;;
20084;SDS011;10202;48.474;9.138;2022-09-09T07:22:15;3.22;;;1.50;;
20084;SDS011;10202;48.474;9.138;2022-09-09T07:24:42;5.20;;;1.50;;
20084;SDS011;10202;48.474;9.138;2022-09-09T07:27:11;3.17;;;1.48;;
20084;SDS011;10202;48.474;9.138;2022-09-09T07:29:37;3.33;;;1.45;;
20084;SDS011;10202;48.474;9.138;2022-09-09T07:32:03;2.78;;;1.30;;
20084;SDS011;10202;48.474;9.138;2022-09-09T07:34:33;2.20;;;1.23;;
20084;SDS011;10202;48.474;9.138;2022-09-09T07:36:59;6.50;;;1.30;;
20084;SDS011;10202;48.474;9.138;2022-09-09T07:39:24;3.05;;;1.20;;
20084;SDS011;10202;48.474;9.138;2022-09-09T07:41:52;6.97;;;1.40;;
20084;SDS011;10202;48.474;9.138;2022-09-09T07:47:10;2.78;;;1.08;;
20084;SDS011;10202;48.474;9.138;2022-09-09T07:49:41;2.53;;;1.20;;
20084;SDS011;10202;48.474;9.138;2022-09-09T07:52:07;2.15;;;1.30;;
20084;SDS011;10202;48.474;9.138;2022-09-09T07:54:34;3.97;;;1.20;;
20084;SDS011;10202;48.474;9.138;2022-09-09T07:57:03;2.55;;;1.23;;
20084;SDS011;10202;48.474;9.138;2022-09-09T07:59:31;7.50;;;1.75;;
20084;SDS011;10202;48.474;9.138;2022-09-09T08:01:57;3.08;;;1.13;;
20084;SDS011;10202;48.474;9.138;2022-09-09T08:04:26;2.08;;;1.08;;
20084;SDS011;10202;48.474;9.138;2022-09-09T08:06:54;5.00;;;1.10;;
20084;SDS011;10202;48.474;9.138;2022-09-09T08:09:25;4.65;;;1.20;;
20084;SDS011;10202;48.474;9.138;2022-09-09T08:11:53;3.15;;;1.00;;
20084;SDS011;10202;48.474;9.138;2022-09-09T08:14:19;2.58;;;1.33;;
20084;SDS011;10202;48.474;9.138;2022-09-09T08:16:46;6.32;;;1.45;;
20084;SDS011;10202;48.474;9.138;2022-09-09T08:19:16;4.28;;;1.20;;
20084;SDS011;10202;48.474;9.138;2022-09-09T08:21:43;3.75;;;0.85;;
20084;SDS011;10202;48.474;9.138;2022-09-09T08:24:10;2.97;;;0.90;;
20084;SDS011;10202;48.474;9.138;2022-09-09T08:26:39;5.82;;;1.40;;
20084;SDS011;10202;48.474;9.138;2022-09-09T08:29:08;7.68;;;1.15;;
20084;SDS011;10202;48.474;9.138;2022-09-09T08:31:40;2.85;;;1.00;;
20084;SDS011;10202;48.474;9.138;2022-09-09T08:34:07;2.55;;;0.98;;
20084;SDS011;10202;48.474;9.138;2022-09-09T08:36:37;3.00;;;0.93;;
20084;SDS011;10202;48.474;9.138;2022-09-09T08:39:04;2.67;;;1.05;;
20084;SDS011;10202;48.474;9.138;2022-09-09T08:52:18;3.03;;;0.80;;
20084;SDS011;10202;48.474;9.138;2022-09-09T08:55:33;3.85;;;0.88;;
20084;SDS011;10202;48.474;9.138;2022-09-09T08:57:56;3.03;;;0.70;;
20084;SDS011;10202;48.474;9.138;2022-09-09T09:00:27;2.45;;;0.65;;
20084;SDS011;10202;48.474;9.138;2022-09-09T09:08:31;3.03;;;1.00;;
20084;SDS011;10202;48.474;9.138;2022-09-09T09:11:03;3.08;;;0.82;;
20084;SDS011;10202;48.474;9.138;2022-09-09T09:19:05;4.43;;;0.85;;
20084;SDS011;10202;48.474;9.138;2022-09-09T09:21:39;3.28;;;0.77;;
20084;SDS011;10202;48.474;9.138;2022-09-09T09:24:19;1.85;;;0.60;;
20084;SDS011;10202;48.474;9.138;2022-09-09T09:26:46;6.32;;;0.90;;
20084;SDS011;10202;48.474;9.138;2022-09-09T09:29:13;3.25;;;0.90;;
20084;SDS011;10202;48.474;9.138;2022-09-09T09:31:42;2.63;;;0.88;;
20084;SDS011;10202;48.474;9.138;2022-09-09T09:34:11;7.70;;;1.08;;
20084;SDS011;10202;48.474;9.138;2022-09-09T09:36:42;3.42;;;0.90;;
20084;SDS011;10202;48.474;9.138;2022-09-09T09:39:29;3.95;;;0.65;;
20084;SDS011;10202;48.474;9.138;2022-09-09T09:41:58;4.32;;;0.70;;
20084;SDS011;10202;48.474;9.138;2022-09-09T09:44:35;2.70;;;0.85;;
20084;SDS011;10202;48.474;9.138;2022-09-09T09:47:15;3.83;;;0.77;;
20084;SDS011;10202;48.474;9.138;2022-09-09T09:49:51;4.88;;;1.08;;
20084;SDS011;10202;48.474;9.138;2022-09-09T09:52:32;3.30;;;1.00;;
20084;SDS011;10202;48.474;9.138;2022-09-09T09:55:02;2.55;;;0.70;;
20084;SDS011;10202;48.474;9.138;2022-09-09T09:57:30;4.45;;;1.08;;
20084;SDS011;10202;48.474;9.138;2022-09-09T10:02:48;2.58;;;0.73;;
20084;SDS011;10202;48.474;9.138;2022-09-09T10:05:22;0.70;;;0.60;;
20084;SDS011;10202;48.474;9.138;2022-09-09T10:08:10;4.10;;;0.80;;
20084;SDS011;10202;48.474;9.138;2022-09-09T10:13:11;2.10;;;0.80;;
20084;SDS011;10202;48.474;9.138;2022-09-09T10:18:20;3.05;;;1.30;;
20084;SDS011;10202;48.474;9.138;2022-09-09T10:31:36;2.33;;;1.02;;
20084;SDS011;10202;48.474;9.138;2022-09-09T10:37:00;1.90;;;1.00;;
20084;SDS011;10202;48.474;9.138;2022-09-09T10:39:35;2.40;;;0.75;;
20084;SDS011;10202;48.474;9.138;2022-09-09T10:42:06;3.83;;;1.00;;
20084;SDS011;10202;48.474;9.138;2022-09-09T10:47:33;3.95;;;0.70;;
20084;SDS011;10202;48.474;9.138;2022-09-09T10:53:03;2.08;;;0.77;;
20084;SDS011;10202;48.474;9.138;2022-09-09T10:55:39;3.80;;;0.65;;
20084;SDS011;10202;48.474;9.138;2022-09-09T10:58:12;2.70;;;0.85;;
20084;SDS011;10202;48.474;9.138;2022-09-09T11:00:42;0.95;;;0.50;;
20084;SDS011;10202;48.474;9.138;2022-09-09T11:03:29;4.00;;;0.70;;
20084;SDS011;10202;48.474;9.138;2022-09-09T11:08:30;3.53;;;0.80;;
20084;SDS011;10202;48.474;9.138;2022-09-09T11:13:44;3.58;;;0.90;;
20084;SDS011;10202;48.474;9.138;2022-09-09T11:18:48;2.60;;;0.98;;
20084;SDS011;10202;48.474;9.138;2022-09-09T11:21:20;4.45;;;0.88;;
20084;SDS011;10202;48.474;9.138;2022-09-09T11:23:52;2.65;;;0.60;;
20084;SDS011;10202;48.474;9.138;2022-09-09T11:26:24;2.25;;;0.70;;
20084;SDS011;10202;48.474;9.138;2022-09-09T11:31:38;2.42;;;0.68;;
20084;SDS011;10202;48.474;9.138;2022-09-09T11:34:13;2.55;;;0.60;;
20084;SDS011;10202;48.474;9.138;2022-09-09T11:44:37;1.40;;;0.40;;
20084;SDS011;10202;48.474;9.138;2022-09-09T11:47:02;1.05;;;0.35;;
20084;SDS011;10202;48.474;9.138;2022-09-09T11:49:29;2.17;;;0.40;;
20084;SDS011;10202;48.474;9.138;2022-09-09T11:52:24;1.63;;;0.30;;
20084;SDS011;10202;48.474;9.138;2022-09-09T11:55:08;1.77;;;0.50;;
20084;SDS011;10202;48.474;9.138;2022-09-09T11:57:47;4.63;;;0.47;;
20084;SDS011;10202;48.474;9.138;2022-09-09T12:00:32;1.95;;;0.40;;
20084;SDS011;10202;48.474;9.138;2022-09-09T12:02:58;1.38;;;0.30;;
20084;SDS011;10202;48.474;9.138;2022-09-09T12:05:24;1.63;;;0.40;;
20084;SDS011;10202;48.474;9.138;2022-09-09T12:08:01;1.15;;;0.50;;
20084;SDS011;10202;48.474;9.138;2022-09-09T12:10:38;2.17;;;0.70;;
20084;SDS011;10202;48.474;9.138;2022-09-09T12:13:15;1.52;;;0.60;;
20084;SDS011;10202;48.474;9.138;2022-09-09T12:15:49;1.98;;;0.65;;
20084;SDS011;10202;48.474;9.138;2022-09-09T12:20:57;1.25;;;0.50;;
20084;SDS011;10202;48.474;9.138;2022-09-09T12:23:30;1.52;;;0.47;;
20084;SDS011;10202;48.474;9.138;2022-09-09T12:31:33;2.85;;;0.65;;
20084;SDS011;10202;48.474;9.138;2022-09-09T12:34:04;1.70;;;0.60;;
20084;SDS011;10202;48.474;9.138;2022-09-09T12:36:57;3.65;;;0.90;;
20084;SDS011;10202;48.474;9.138;2022-09-09T12:39:29;5.57;;;0.93;;
20084;SDS011;10202;48.474;9.138;2022-09-09T12:41:58;7.55;;;0.65;;
20084;SDS011;10202;48.474;9.138;2022-09-09T12:44:24;2.75;;;0.70;;
20084;SDS011;10202;48.474;9.138;2022-09-09T12:46:50;2.58;;;0.90;;
20084;SDS011;10202;48.474;9.138;2022-09-09T12:51:52;3.03;;;0.52;;
20084;SDS011;10202;48.474;9.138;2022-09-09T12:54:18;4.03;;;0.60;;
20084;SDS011;10202;48.474;9.138;2022-09-09T12:56:47;4.03;;;0.47;;
20084;SDS011;10202;48.474;9.138;2022-09-09T12:59:24;3.28;;;0.50;;
20084;SDS011;10202;48.474;9.138;2022-09-09T13:01:57;3.15;;;0.60;;
20084;SDS011;10202;48.474;9.138;2022-09-09T13:04:23;3.38;;;0.70;;
20084;SDS011;10202;48.474;9.138;2022-09-09T13:06:49;1.63;;;0.68;;
20084;SDS011;10202;48.474;9.138;2022-09-09T13:09:14;2.38;;;0.40;;
20084;SDS011;10202;48.474;9.138;2022-09-09T13:11:58;2.67;;;0.55;;
20084;SDS011;10202;48.474;9.138;2022-09-09T13:14:28;2.75;;;0.70;;
20084;SDS011;10202;48.474;9.138;2022-09-09T13:17:01;3.33;;;0.80;;
20084;SDS011;10202;48.474;9.138;2022-09-09T13:19:37;3.78;;;0.77;;
20084;SDS011;10202;48.474;9.138;2022-09-09T13:22:14;5.30;;;0.68;;
20084;SDS011;10202;48.474;9.138;2022-09-09T13:24:44;2.90;;;0.70;;
20084;SDS011;10202;48.474;9.138;2022-09-09T13:29:59;4.30;;;0.60;;
20084;SDS011;10202;48.474;9.138;2022-09-09T13:32:25;1.88;;;0.47;;
20084;SDS011;10202;48.474;9.138;2022-09-09T13:34:55;1.63;;;0.57;;
20084;SDS011;10202;48.474;9.138;2022-09-09T13:37:35;2.35;;;0.40;;
20084;SDS011;10202;48.474;9.138;2022-09-09T13:40:02;2.08;;;0.50;;
20084;SDS011;10202;48.474;9.138;2022-09-09T13:42:31;2.22;;;0.68;;
20084;SDS011;10202;48.474;9.138;2022-09-09T13:44:59;1.45;;;0.60;;
20084;SDS011;10202;48.474;9.138;2022-09-09T13:47:30;1.55;;;0.75;;
20084;SDS011;10202;48.474;9.138;2022-09-09T13:49:57;1.15;;;0.50;;
20084;SDS011;10202;48.474;9.138;2022-09-09T13:52:23;1.58;;;0.55;;
20084;SDS011;10202;48.474;9.138;2022-09-09T13:54:49;6.18;;;0.90;;
20084;SDS011;10202;48.474;9.138;2022-09-09T13:57:20;4.45;;;0.65;;
20084;SDS011;10202;48.474;9.138;2022-09-09T13:59:48;1.95;;;0.50;;
20084;SDS011;10202;48.474;9.138;2022-09-09T14:02:14;2.90;;;0.50;;
20084;SDS011;10202;48.474;9.138;2022-09-09T14:04:41;2.70;;;0.50;;
20084;SDS011;10202;48.474;9.138;2022-09-09T14:07:11;1.67;;;0.50;;
20084;SDS011;10202;48.474;9.138;2022-09-09T14:09:38;2.90;;;0.50;;
20084;SDS011;10202;48.474;9.138;2022-09-09T14:12:04;3.85;;;0.45;;
20084;SDS011;10202;48.474;9.138;2022-09-09T14:14:30;2.30;;;0.35;;
20084;SDS011;10202;48.474;9.138;2022-09-09T14:16:55;2.50;;;0.60;;
20084;SDS011;10202;48.474;9.138;2022-09-09T14:19:21;1.40;;;0.55;;
20084;SDS011;10202;48.474;9.138;2022-09-09T14:21:46;2.22;;;0.55;;
20084;SDS011;10202;48.474;9.138;2022-09-09T14:24:12;3.03;;;0.40;;
20084;SDS011;10202;48.474;9.138;2022-09-09T14:26:38;2.33;;;0.60;;
20084;SDS011;10202;48.474;9.138;2022-09-09T14:29:03;3.38;;;0.60;;
20084;SDS011;10202;48.474;9.138;2022-09-09T14:31:29;1.80;;;0.68;;
20084;SDS011;10202;48.474;9.138;2022-09-09T14:33:54;1.40;;;0.50;;
20084;SDS011;10202;48.474;9.138;2022-09-09T14:36:20;2.90;;;0.70;;
20084;SDS011;10202;48.474;9.138;2022-09-09T14:38:46;2.13;;;0.57;;
20084;SDS011;10202;48.474;9.138;2022-09-09T14:41:12;6.80;;;0.60;;
20084;SDS011;10202;48.474;9.138;2022-09-09T14:43:42;2.55;;;0.55;;
20084;SDS011;10202;48.474;9.138;2022-09-09T14:46:08;0.73;;;0.32;;
20084;SDS011;10202;48.474;9.138;2022-09-09T14:48:36;0.98;;;0.50;;
20084;SDS011;10202;48.474;9.138;2022-09-09T14:51:12;8.10;;;0.68;;
20084;SDS011;10202;48.474;9.138;2022-09-09T14:53:40;2.15;;;0.50;;
20084;SDS011;10202;48.474;9.138;2022-09-09T14:56:10;4.82;;;0.63;;
20084;SDS011;10202;48.474;9.138;2022-09-09T14:58:41;2.50;;;0.60;;
20084;SDS011;10202;48.474;9.138;2022-09-09T15:01:08;3.63;;;0.47;;
20084;SDS011;10202;48.474;9.138;2022-09-09T15:03:36;1.27;;;0.50;;
20084;SDS011;10202;48.474;9.138;2022-09-09T15:06:06;3.15;;;0.60;;
20084;SDS011;10202;48.474;9.138;2022-09-09T15:08:39;6.22;;;0.75;;
20084;SDS011;10202;48.474;9.138;2022-09-09T15:11:06;1.92;;;0.60;;
20084;SDS011;10202;48.474;9.138;2022-09-09T15:13:35;1.90;;;0.40;;
20084;SDS011;10202;48.474;9.138;2022-09-09T15:16:12;2.40;;;0.68;;
20084;SDS011;10202;48.474;9.138;2022-09-09T15:18:44;1.35;;;0.45;;
20084;SDS011;10202;48.474;9.138;2022-09-09T15:21:10;2.22;;;0.45;;
20084;SDS011;10202;48.474;9.138;2022-09-09T15:23:39;3.45;;;0.65;;
20084;SDS011;10202;48.474;9.138;2022-09-09T15:26:05;5.15;;;0.60;;
20084;SDS011;10202;48.474;9.138;2022-09-09T15:28:32;0.98;;;0.50;;
20084;SDS011;10202;48.474;9.138;2022-09-09T15:31:19;4.50;;;0.70;;
20084;SDS011;10202;48.474;9.138;2022-09-09T15:33:46;2.40;;;0.52;;
20084;SDS011;10202;48.474;9.138;2022-09-09T15:38:55;1.60;;;0.65;;
20084;SDS011;10202;48.474;9.138;2022-09-09T15:41:21;1.65;;;0.55;;
20084;SDS011;10202;48.474;9.138;2022-09-09T15:43:48;1.95;;;0.40;;
20084;SDS011;10202;48.474;9.138;2022-09-09T15:48:49;0.68;;;0.40;;
20084;SDS011;10202;48.474;9.138;2022-09-09T15:51:16;1.42;;;0.28;;
20084;SDS011;10202;48.474;9.138;2022-09-09T15:53:41;0.52;;;0.20;;
20084;SDS011;10202;48.474;9.138;2022-09-09T15:56:07;0.88;;;0.20;;
20084;SDS011;10202;48.474;9.138;2022-09-09T15:58:33;0.20;;;0.20;;
20084;SDS011;10202;48.474;9.138;2022-09-09T16:01:03;0.47;;;0.13;;
20084;SDS011;10202;48.474;9.138;2022-09-09T16:03:36;0.57;;;0.17;;
20084;SDS011;10202;48.474;9.138;2022-09-09T16:06:03;1.27;;;0.30;;
20084;SDS011;10202;48.474;9.138;2022-09-09T16:08:37;0.47;;;0.30;;
20084;SDS011;10202;48.474;9.138;2022-09-09T16:11:08;0.35;;;0.20;;
20084;SDS011;10202;48.474;9.138;2022-09-09T16:13:41;0.40;;;0.30;;
20084;SDS011;10202;48.474;9.138;2022-09-09T16:16:09;4.38;;;0.35;;
20084;SDS011;10202;48.474;9.138;2022-09-09T16:18:37;0.40;;;0.30;;
20084;SDS011;10202;48.474;9.138;2022-09-09T16:21:04;0.68;;;0.30;;
20084;SDS011;10202;48.474;9.138;2022-09-09T16:23:31;5.00;;;0.40;;
20084;SDS011;10202;48.474;9.138;2022-09-09T16:25:57;1.95;;;0.30;;
20084;SDS011;10202;48.474;9.138;2022-09-09T16:28:23;1.02;;;0.30;;
20084;SDS011;10202;48.474;9.138;2022-09-09T16:30:49;0.63;;;0.25;;
20084;SDS011;10202;48.474;9.138;2022-09-09T16:33:15;1.15;;;0.40;;
20084;SDS011;10202;48.474;9.138;2022-09-09T16:35:41;0.85;;;0.40;;
20084;SDS011;10202;48.474;9.138;2022-09-09T16:38:07;0.63;;;0.45;;
20084;SDS011;10202;48.474;9.138;2022-09-09T16:40:36;0.85;;;0.43;;
20084;SDS011;10202;48.474;9.138;2022-09-09T16:43:03;1.33;;;0.50;;
20084;SDS011;10202;48.474;9.138;2022-09-09T16:45:29;2.05;;;0.30;;
20084;SDS011;10202;48.474;9.138;2022-09-09T16:47:55;2.08;;;0.52;;
20084;SDS011;10202;48.474;9.138;2022-09-09T16:50:20;2.67;;;0.40;;
20084;SDS011;10202;48.474;9.138;2022-09-09T16:52:46;1.70;;;0.40;;
20084;SDS011;10202;48.474;9.138;2022-09-09T16:55:12;3.42;;;0.47;;
20084;SDS011;10202;48.474;9.138;2022-09-09T16:57:37;1.08;;;0.43;;
20084;SDS011;10202;48.474;9.138;2022-09-09T17:00:03;0.77;;;0.50;;
20084;SDS011;10202;48.474;9.138;2022-09-09T17:02:31;1.20;;;0.60;;
20084;SDS011;10202;48.474;9.138;2022-09-09T17:04:56;2.75;;;0.57;;
20084;SDS011;10202;48.474;9.138;2022-09-09T17:07:22;1.20;;;0.52;;
20084;SDS011;10202;48.474;9.138;2022-09-09T17:09:48;2.40;;;0.57;;
20084;SDS011;10202;48.474;9.138;2022-09-09T17:12:14;2.30;;;0.60;;
20084;SDS011;10202;48.474;9.138;2022-09-09T17:14:41;3.38;;;0.80;;
20084;SDS011;10202;48.474;9.138;2022-09-09T17:17:07;2.88;;;0.40;;
20084;SDS011;10202;48.474;9.138;2022-09-09T17:19:32;2.25;;;0.50;;
20084;SDS011;10202;48.474;9.138;2022-09-09T17:21:58;2.63;;;0.50;;
20084;SDS011;10202;48.474;9.138;2022-09-09T17:24:24;1.38;;;0.55;;
20084;SDS011;10202;48.474;9.138;2022-09-09T17:26:51;2.70;;;0.70;;
20084;SDS011;10202;48.474;9.138;2022-09-09T17:29:17;2.00;;;0.55;;
20084;SDS011;10202;48.474;9.138;2022-09-09T17:31:42;5.05;;;0.70;;
20084;SDS011;10202;48.474;9.138;2022-09-09T17:34:08;3.75;;;0.47;;
20084;SDS011;10202;48.474;9.138;2022-09-09T17:36:34;5.95;;;0.55;;
20084;SDS011;10202;48.474;9.138;2022-09-09T17:39:00;2.72;;;0.60;;
20084;SDS011;10202;48.474;9.138;2022-09-09T17:41:30;1.45;;;0.73;;
20084;SDS011;10202;48.474;9.138;2022-09-09T17:43:57;1.75;;;0.68;;
20084;SDS011;10202;48.474;9.138;2022-09-09T17:46:27;1.52;;;0.65;;
20084;SDS011;10202;48.474;9.138;2022-09-09T17:48:58;1.40;;;0.60;;
20084;SDS011;10202;48.474;9.138;2022-09-09T17:51:25;1.95;;;0.70;;
20084;SDS011;10202;48.474;9.138;2022-09-09T17:53:55;1.42;;;0.43;;
20084;SDS011;10202;48.474;9.138;2022-09-09T17:56:29;1.85;;;0.50;;
20084;SDS011;10202;48.474;9.138;2022-09-09T17:58:56;2.40;;;0.57;;
20084;SDS011;10202;48.474;9.138;2022-09-09T18:01:24;1.33;;;0.50;;
20084;SDS011;10202;48.474;9.138;2022-09-09T18:03:54;2.42;;;0.60;;
20084;SDS011;10202;48.474;9.138;2022-09-09T18:06:24;1.80;;;0.70;;
20084;SDS011;10202;48.474;9.138;2022-09-09T18:08:56;5.43;;;0.60;;
20084;SDS011;10202;48.474;9.138;2022-09-09T18:11:24;5.55;;;1.20;;
20084;SDS011;10202;48.474;9.138;2022-09-09T18:13:52;3.20;;;1.10;;
20084;SDS011;10202;48.474;9.138;2022-09-09T18:16:19;5.60;;;3.47;;
20084;SDS011;10202;48.474;9.138;2022-09-09T18:18:47;3.08;;;1.35;;
20084;SDS011;10202;48.474;9.138;2022-09-09T18:21:14;1.58;;;1.02;;
20084;SDS011;10202;48.474;9.138;2022-09-09T18:23:42;1.20;;;0.50;;
20084;SDS011;10202;48.474;9.138;2022-09-09T18:26:12;0.70;;;0.55;;
20084;SDS011;10202;48.474;9.138;2022-09-09T18:28:39;2.42;;;0.60;;
20084;SDS011;10202;48.474;9.138;2022-09-09T18:31:06;2.47;;;0.80;;
20084;SDS011;10202;48.474;9.138;2022-09-09T18:33:36;1.98;;;0.70;;
20084;SDS011;10202;48.474;9.138;2022-09-09T18:36:04;3.65;;;0.57;;
20084;SDS011;10202;48.474;9.138;2022-09-09T18:38:36;6.47;;;0.57;;
20084;SDS011;10202;48.474;9.138;2022-09-09T18:43:37;1.95;;;0.60;;
20084;SDS011;10202;48.474;9.138;2022-09-09T18:46:03;1.70;;;0.70;;
20084;SDS011;10202;48.474;9.138;2022-09-09T18:48:31;1.23;;;0.32;;
20084;SDS011;10202;48.474;9.138;2022-09-09T18:51:00;1.65;;;0.40;;
20084;SDS011;10202;48.474;9.138;2022-09-09T18:53:30;1.30;;;0.40;;
20084;SDS011;10202;48.474;9.138;2022-09-09T18:55:57;2.25;;;0.40;;
20084;SDS011;10202;48.474;9.138;2022-09-09T18:58:23;5.20;;;0.50;;
20084;SDS011;10202;48.474;9.138;2022-09-09T19:00:49;2.85;;;0.50;;
20084;SDS011;10202;48.474;9.138;2022-09-09T19:03:14;1.65;;;0.73;;
20084;SDS011;10202;48.474;9.138;2022-09-09T19:05:41;2.70;;;0.47;;
20084;SDS011;10202;48.474;9.138;2022-09-09T19:08:06;4.28;;;0.50;;
20084;SDS011;10202;48.474;9.138;2022-09-09T19:10:34;1.58;;;0.57;;
20084;SDS011;10202;48.474;9.138;2022-09-09T19:13:01;1.45;;;0.60;;
20084;SDS011;10202;48.474;9.138;2022-09-09T19:15:26;1.27;;;0.45;;
20084;SDS011;10202;48.474;9.138;2022-09-09T19:17:53;0.60;;;0.40;;
20084;SDS011;10202;48.474;9.138;2022-09-09T19:20:20;3.65;;;0.68;;
20084;SDS011;10202;48.474;9.138;2022-09-09T19:22:48;3.30;;;1.10;;
20084;SDS011;10202;48.474;9.138;2022-09-09T19:25:14;6.13;;;3.42;;
20084;SDS011;10202;48.474;9.138;2022-09-09T19:27:40;4.32;;;1.73;;
20084;SDS011;10202;48.474;9.138;2022-09-09T19:30:07;1.30;;;0.65;;
20084;SDS011;10202;48.474;9.138;2022-09-09T19:32:34;1.65;;;1.00;;
20084;SDS011;10202;48.474;9.138;2022-09-09T19:35:02;8.45;;;1.05;;
20084;SDS011;10202;48.474;9.138;2022-09-09T19:37:28;2.60;;;1.42;;
20084;SDS011;10202;48.474;9.138;2022-09-09T19:39:54;2.53;;;1.02;;
20084;SDS011;10202;48.474;9.138;2022-09-09T19:42:20;4.13;;;1.17;;
20084;SDS011;10202;48.474;9.138;2022-09-09T19:44:45;1.77;;;0.80;;
20084;SDS011;10202;48.474;9.138;2022-09-09T19:47:11;2.80;;;0.70;;
20084;SDS011;10202;48.474;9.138;2022-09-09T19:49:39;3.75;;;1.00;;
20084;SDS011;10202;48.474;9.138;2022-09-09T19:52:05;1.55;;;0.82;;
20084;SDS011;10202;48.474;9.138;2022-09-09T19:54:30;4.95;;;0.90;;
20084;SDS011;10202;48.474;9.138;2022-09-09T19:56:56;2.22;;;0.73;;
20084;SDS011;10202;48.474;9.138;2022-09-09T19:59:22;3.25;;;0.68;;
20084;SDS011;10202;48.474;9.138;2022-09-09T20:02:09;2.22;;;0.85;;
20084;SDS011;10202;48.474;9.138;2022-09-09T20:04:36;2.08;;;0.82;;
20084;SDS011;10202;48.474;9.138;2022-09-09T20:07:02;4.22;;;1.00;;
20084;SDS011;10202;48.474;9.138;2022-09-09T20:09:28;1.10;;;0.60;;
20084;SDS011;10202;48.474;9.138;2022-09-09T20:11:54;2.00;;;0.82;;
20084;SDS011;10202;48.474;9.138;2022-09-09T20:14:20;6.13;;;1.08;;
20084;SDS011;10202;48.474;9.138;2022-09-09T20:16:45;4.25;;;2.22;;
20084;SDS011;10202;48.474;9.138;2022-09-09T20:19:11;3.33;;;1.63;;
20084;SDS011;10202;48.474;9.138;2022-09-09T20:21:41;4.25;;;1.10;;
20084;SDS011;10202;48.474;9.138;2022-09-09T20:24:09;1.60;;;0.60;;
20084;SDS011;10202;48.474;9.138;2022-09-09T20:26:36;1.77;;;0.70;;
20084;SDS011;10202;48.474;9.138;2022-09-09T20:29:09;3.55;;;1.08;;
20084;SDS011;10202;48.474;9.138;2022-09-09T20:31:36;3.88;;;0.98;;
20084;SDS011;10202;48.474;9.138;2022-09-09T20:34:04;2.88;;;0.93;;
20084;SDS011;10202;48.474;9.138;2022-09-09T20:36:33;2.85;;;0.63;;
20084;SDS011;10202;48.474;9.138;2022-09-09T20:39:04;2.38;;;0.80;;
20084;SDS011;10202;48.474;9.138;2022-09-09T20:41:34;2.83;;;0.90;;
20084;SDS011;10202;48.474;9.138;2022-09-09T20:44:05;2.97;;;0.95;;